首页
METAR-TAF:

METAR-TAF

机场 :

伊丽莎白市, 北卡罗来纳州, 美国

纬度: 36-15-47N, 经度: 076-10-58W, 海拔: 3米

当前天气观测

该预报发布于40分钟前的07:54 UTC
风速9节,风向西转西北
温度 9°C
湿度 49%
气压 1010 hPa
能見度: 16.1公里
天空无云

METAR: KECG 030754Z AUTO 29009KT 10SM CLR 09/M01 A2982 RMK AO2 SLP098 T00941006 $

时间: 04:34 (08:34 UTC)

预报

该预报发布于3小时和14分钟前的05:20 UTC
预报有效从03日的 06点(UTC)到 04日的 06点(UTC)
风速10节,风向西转西北
能見度: 10公里
天空无云
从 03日的 1400点(UTC)
风速15节,风向西北,有时为26节阵风
能見度: 10公里
天空无云
从 03日的 2100点(UTC)
风速13节,风向北转西北,有时为22节阵风
能見度: 10公里
散云层高于6000英尺
从 04日的 0000点(UTC)
风速10节,风向北转西北
能見度: 10公里
散云层高于6000英尺

TAF: KECG 030520Z 0306/0406 29010KT P6SM SKC FM031400 31015G26KT P6SM SKC FM032100 33013G22KT P6SM SCT060 FM040000 34010KT P6SM SCT060

超过4000个机场的气象观测和天气预报(METAR&TAF报告)。

可查询的气象台以黄色和红色小点在地图上表示。

将鼠标移到小点上方,可查看气象台名称。

然后点击查看天气观测和预报。

如需切换地图:点击带黑十字的绿色按钮放大地图;点击带横线的绿色按钮缩小地图;或者点击绿色箭头查看邻近地区的地图。


METAR-TAF: